sensor_id;sensor_type;location;lat;lon;timestamp;pressure;altitude;pressure_sealevel;temperature;humidity
21760;BME280;11041;50.854;20.580;2023-11-25T00:00:55;96523.13;;;-0.22;100.00
21760;BME280;11041;50.854;20.580;2023-11-25T00:03:39;96526.94;;;-0.23;100.00
21760;BME280;11041;50.854;20.580;2023-11-25T00:06:07;96520.41;;;-0.22;100.00
21760;BME280;11041;50.854;20.580;2023-11-25T00:08:34;96523.44;;;-0.24;100.00
21760;BME280;11041;50.854;20.580;2023-11-25T00:11:01;96521.81;;;-0.25;100.00
21760;BME280;11041;50.854;20.580;2023-11-25T00:13:28;96525.44;;;-0.15;100.00
21760;BME280;11041;50.854;20.580;2023-11-25T00:15:54;96530.63;;;-0.19;100.00
21760;BME280;11041;50.854;20.580;2023-11-25T00:18:21;96525.13;;;-0.28;100.00
21760;BME280;11041;50.854;20.580;2023-11-25T00:20:49;96532.94;;;-0.26;100.00
21760;BME280;11041;50.854;20.580;2023-11-25T00:23:15;96537.13;;;-0.20;100.00
21760;BME280;11041;50.854;20.580;2023-11-25T00:25:45;96537.44;;;-0.22;100.00
21760;BME280;11041;50.854;20.580;2023-11-25T00:28:11;96543.81;;;-0.17;100.00
21760;BME280;11041;50.854;20.580;2023-11-25T00:30:38;96542.41;;;-0.15;100.00
21760;BME280;11041;50.854;20.580;2023-11-25T00:33:04;96549.94;;;-0.12;100.00
21760;BME280;11041;50.854;20.580;2023-11-25T00:35:31;96559.50;;;-0.19;100.00
21760;BME280;11041;50.854;20.580;2023-11-25T00:37:58;96551.50;;;-0.25;100.00
21760;BME280;11041;50.854;20.580;2023-11-25T00:40:25;96549.03;;;-0.21;100.00
21760;BME280;11041;50.854;20.580;2023-11-25T00:42:52;96556.81;;;-0.19;100.00
21760;BME280;11041;50.854;20.580;2023-11-25T00:45:19;96544.13;;;-0.19;100.00
21760;BME280;11041;50.854;20.580;2023-11-25T00:47:47;96549.81;;;-0.20;100.00
21760;BME280;11041;50.854;20.580;2023-11-25T00:50:13;96547.41;;;-0.22;100.00
21760;BME280;11041;50.854;20.580;2023-11-25T00:52:42;96545.44;;;-0.16;100.00
21760;BME280;11041;50.854;20.580;2023-11-25T00:55:09;96545.94;;;-0.14;100.00
21760;BME280;11041;50.854;20.580;2023-11-25T00:57:37;96547.41;;;-0.22;100.00
21760;BME280;11041;50.854;20.580;2023-11-25T01:00:05;96546.84;;;-0.19;100.00
21760;BME280;11041;50.854;20.580;2023-11-25T01:02:32;96540.81;;;-0.16;100.00
21760;BME280;11041;50.854;20.580;2023-11-25T01:04:58;96543.25;;;-0.14;100.00
21760;BME280;11041;50.854;20.580;2023-11-25T01:07:25;96540.03;;;-0.16;100.00
21760;BME280;11041;50.854;20.580;2023-11-25T01:09:51;96537.63;;;-0.18;100.00
21760;BME280;11041;50.854;20.580;2023-11-25T01:12:18;96537.63;;;-0.18;100.00
21760;BME280;11041;50.854;20.580;2023-11-25T01:14:44;96542.72;;;-0.16;100.00
21760;BME280;11041;50.854;20.580;2023-11-25T01:17:11;96537.13;;;-0.20;100.00
21760;BME280;11041;50.854;20.580;2023-11-25T01:19:38;96530.63;;;-0.19;100.00
21760;BME280;11041;50.854;20.580;2023-11-25T01:22:05;96528.41;;;-0.17;100.00
21760;BME280;11041;50.854;20.580;2023-11-25T01:24:32;96526.94;;;-0.23;100.00
21760;BME280;11041;50.854;20.580;2023-11-25T01:26:59;96527.22;;;-0.25;100.00
21760;BME280;11041;50.854;20.580;2023-11-25T01:29:26;96523.72;;;-0.25;100.00
21760;BME280;11041;50.854;20.580;2023-11-25T01:31:52;96520.84;;;-0.29;100.00
21760;BME280;11041;50.854;20.580;2023-11-25T01:34:19;96507.34;;;-0.29;100.00
21760;BME280;11041;50.854;20.580;2023-11-25T01:36:46;96513.84;;;-0.30;100.00
21760;BME280;11041;50.854;20.580;2023-11-25T01:39:12;96510.13;;;-0.34;100.00
21760;BME280;11041;50.854;20.580;2023-11-25T01:41:39;96514.72;;;-0.34;100.00
21760;BME280;11041;50.854;20.580;2023-11-25T01:44:06;96518.94;;;-0.28;100.00
21760;BME280;11041;50.854;20.580;2023-11-25T01:46:37;96506.34;;;-0.19;100.00
21760;BME280;11041;50.854;20.580;2023-11-25T01:49:11;96501.03;;;-0.10;100.00
21760;BME280;11041;50.854;20.580;2023-11-25T01:51:44;96508.84;;;-0.09;100.00
21760;BME280;11041;50.854;20.580;2023-11-25T01:54:16;96515.03;;;-0.08;100.00
21760;BME280;11041;50.854;20.580;2023-11-25T01:56:48;96505.44;;;-0.14;100.00
21760;BME280;11041;50.854;20.580;2023-11-25T01:59:18;96513.03;;;-0.16;100.00
21760;BME280;11041;50.854;20.580;2023-11-25T02:01:46;96507.75;;;-0.22;100.00
21760;BME280;11041;50.854;20.580;2023-11-25T02:04:13;96513.22;;;-0.27;100.00
21760;BME280;11041;50.854;20.580;2023-11-25T02:06:39;96503.81;;;-0.29;100.00
21760;BME280;11041;50.854;20.580;2023-11-25T02:09:06;96507.44;;;-0.34;100.00
21760;BME280;11041;50.854;20.580;2023-11-25T02:11:59;96512.34;;;-0.36;100.00
21760;BME280;11041;50.854;20.580;2023-11-25T02:14:28;96505.84;;;-0.35;100.00
21760;BME280;11041;50.854;20.580;2023-11-25T02:16:55;96500.53;;;-0.40;100.00
21760;BME280;11041;50.854;20.580;2023-11-25T02:19:23;96503.13;;;-0.35;100.00
21760;BME280;11041;50.854;20.580;2023-11-25T02:21:54;96494.44;;;-0.32;100.00
21760;BME280;11041;50.854;20.580;2023-11-25T02:24:22;96504.72;;;-0.34;100.00
21760;BME280;11041;50.854;20.580;2023-11-25T02:26:59;96498.84;;;-0.36;100.00
21760;BME280;11041;50.854;20.580;2023-11-25T02:29:27;96505.34;;;-0.37;100.00
21760;BME280;11041;50.854;20.580;2023-11-25T02:31:53;96507.44;;;-0.34;100.00
21760;BME280;11041;50.854;20.580;2023-11-25T02:34:20;96510.94;;;-0.33;100.00
21760;BME280;11041;50.854;20.580;2023-11-25T02:36:46;96518.22;;;-0.34;100.00
21760;BME280;11041;50.854;20.580;2023-11-25T02:39:14;96513.13;;;-0.35;100.00
21760;BME280;11041;50.854;20.580;2023-11-25T02:41:49;96516.44;;;-0.38;100.00
21760;BME280;11041;50.854;20.580;2023-11-25T02:44:18;96517.34;;;-0.43;100.00
21760;BME280;11041;50.854;20.580;2023-11-25T02:46:49;96512.72;;;-0.43;100.00
21760;BME280;11041;50.854;20.580;2023-11-25T02:49:16;96517.91;;;-0.46;100.00
21760;BME280;11041;50.854;20.580;2023-11-25T02:51:50;96521.63;;;-0.42;100.00
21760;BME280;11041;50.854;20.580;2023-11-25T02:54:22;96523.22;;;-0.41;100.00
21760;BME280;11041;50.854;20.580;2023-11-25T02:56:49;96524.72;;;-0.35;100.00
21760;BME280;11041;50.854;20.580;2023-11-25T02:59:17;96517.75;;;-0.36;100.00
21760;BME280;11041;50.854;20.580;2023-11-25T03:01:48;96524.59;;;-0.44;100.00
21760;BME280;11041;50.854;20.580;2023-11-25T03:04:15;96532.69;;;-0.44;100.00
21760;BME280;11041;50.854;20.580;2023-11-25T03:06:43;96539.41;;;-0.41;100.00
21760;BME280;11041;50.854;20.580;2023-11-25T03:09:12;96541.00;;;-0.40;100.00
21760;BME280;11041;50.854;20.580;2023-11-25T03:11:40;96544.78;;;-0.41;100.00
21760;BME280;11041;50.854;20.580;2023-11-25T03:14:07;96540.22;;;-0.40;100.00
21760;BME280;11041;50.854;20.580;2023-11-25T03:16:34;96548.22;;;-0.35;100.00
21760;BME280;11041;50.854;20.580;2023-11-25T03:19:01;96533.09;;;-0.36;100.00
21760;BME280;11041;50.854;20.580;2023-11-25T03:21:29;96533.94;;;-0.36;100.00
21760;BME280;11041;50.854;20.580;2023-11-25T03:23:55;96529.84;;;-0.33;100.00
21760;BME280;11041;50.854;20.580;2023-11-25T03:26:21;96531.41;;;-0.32;100.00
21760;BME280;11041;50.854;20.580;2023-11-25T03:28:49;96542.22;;;-0.32;100.00
21760;BME280;11041;50.854;20.580;2023-11-25T03:31:15;96553.81;;;-0.32;100.00
21760;BME280;11041;50.854;20.580;2023-11-25T03:33:43;96545.72;;;-0.32;100.00
21760;BME280;11041;50.854;20.580;2023-11-25T03:36:10;96546.22;;;-0.30;100.00
21760;BME280;11041;50.854;20.580;2023-11-25T03:38:39;96540.53;;;-0.28;100.00
21760;BME280;11041;50.854;20.580;2023-11-25T03:41:06;96542.44;;;-0.29;100.00
21760;BME280;11041;50.854;20.580;2023-11-25T03:43:32;96543.22;;;-0.28;100.00
21760;BME280;11041;50.854;20.580;2023-11-25T03:45:59;96543.22;;;-0.28;100.00
21760;BME280;11041;50.854;20.580;2023-11-25T03:48:26;96541.31;;;-0.28;100.00
21760;BME280;11041;50.854;20.580;2023-11-25T03:50:53;96551.50;;;-0.25;100.00
21760;BME280;11041;50.854;20.580;2023-11-25T03:53:19;96544.81;;;-0.27;100.00
21760;BME280;11041;50.854;20.580;2023-11-25T03:55:46;96540.03;;;-0.30;100.00
21760;BME280;11041;50.854;20.580;2023-11-25T03:58:12;96546.81;;;-0.33;100.00
21760;BME280;11041;50.854;20.580;2023-11-25T04:00:39;96536.81;;;-0.32;100.00
21760;BME280;11041;50.854;20.580;2023-11-25T04:03:05;96537.44;;;-0.35;100.00
21760;BME280;11041;50.854;20.580;2023-11-25T04:05:32;96543.63;;;-0.35;100.00
21760;BME280;11041;50.854;20.580;2023-11-25T04:07:59;96531.72;;;-0.34;100.00
21760;BME280;11041;50.854;20.580;2023-11-25T04:10:25;96538.34;;;-0.26;100.00
21760;BME280;11041;50.854;20.580;2023-11-25T04:12:53;96539.63;;;-0.24;100.00
21760;BME280;11041;50.854;20.580;2023-11-25T04:15:22;96543.41;;;-0.25;100.00
21760;BME280;11041;50.854;20.580;2023-11-25T04:17:49;96551.22;;;-0.23;100.00
21760;BME280;11041;50.854;20.580;2023-11-25T04:20:17;96557.69;;;-0.24;100.00
21760;BME280;11041;50.854;20.580;2023-11-25T04:22:56;96555.00;;;-0.24;100.00
21760;BME280;11041;50.854;20.580;2023-11-25T04:25:24;96552.91;;;-0.27;100.00
21760;BME280;11041;50.854;20.580;2023-11-25T04:27:51;96567.63;;;-0.33;100.00
21760;BME280;11041;50.854;20.580;2023-11-25T04:30:18;96574.59;;;-0.32;100.00
21760;BME280;11041;50.854;20.580;2023-11-25T04:32:47;96584.09;;;-0.35;100.00
21760;BME280;11041;50.854;20.580;2023-11-25T04:35:13;96588.19;;;-0.37;100.00
21760;BME280;11041;50.854;20.580;2023-11-25T04:37:42;96596.25;;;-0.51;100.00
21760;BME280;11041;50.854;20.580;2023-11-25T04:40:13;96590.44;;;-0.58;100.00
21760;BME280;11041;50.854;20.580;2023-11-25T04:42:44;96602.41;;;-0.65;100.00
21760;BME280;11041;50.854;20.580;2023-11-25T04:45:13;96592.63;;;-0.60;100.00
21760;BME280;11041;50.854;20.580;2023-11-25T04:47:47;96602.63;;;-0.61;100.00
21760;BME280;11041;50.854;20.580;2023-11-25T04:50:18;96610.94;;;-0.57;100.00
21760;BME280;11041;50.854;20.580;2023-11-25T04:52:50;96613.91;;;-0.59;100.00
21760;BME280;11041;50.854;20.580;2023-11-25T04:55:19;96624.72;;;-0.59;100.00
21760;BME280;11041;50.854;20.580;2023-11-25T04:57:49;96638.41;;;-0.55;100.00
21760;BME280;11041;50.854;20.580;2023-11-25T05:00:21;96635.78;;;-0.60;100.00
21760;BME280;11041;50.854;20.580;2023-11-25T05:02:54;96643.44;;;-0.68;100.00
21760;BME280;11041;50.854;20.580;2023-11-25T05:05:26;96647.16;;;-0.63;100.00
21760;BME280;11041;50.854;20.580;2023-11-25T05:07:58;96643.88;;;-0.60;100.00
21760;BME280;11041;50.854;20.580;2023-11-25T05:10:31;96663.25;;;-0.58;100.00
21760;BME280;11041;50.854;20.580;2023-11-25T05:12:58;96665.97;;;-0.58;100.00
21760;BME280;11041;50.854;20.580;2023-11-25T05:15:27;96657.88;;;-0.58;100.00
21760;BME280;11041;50.854;20.580;2023-11-25T05:17:57;96668.16;;;-0.60;100.00
21760;BME280;11041;50.854;20.580;2023-11-25T05:20:25;96671.16;;;-0.62;100.00
21760;BME280;11041;50.854;20.580;2023-11-25T05:22:54;96674.06;;;-0.58;100.00
21760;BME280;11041;50.854;20.580;2023-11-25T05:25:26;96681.34;;;-0.59;100.00
21760;BME280;11041;50.854;20.580;2023-11-25T05:27:55;96690.03;;;-0.62;100.00
21760;BME280;11041;50.854;20.580;2023-11-25T05:30:27;96693.25;;;-0.60;100.00
21760;BME280;11041;50.854;20.580;2023-11-25T05:32:54;96698.41;;;-0.63;100.00
21760;BME280;11041;50.854;20.580;2023-11-25T05:35:21;96696.31;;;-0.67;100.00
21760;BME280;11041;50.854;20.580;2023-11-25T05:37:53;96704.41;;;-0.67;100.00
21760;BME280;11041;50.854;20.580;2023-11-25T05:40:21;96714.41;;;-0.67;100.00
21760;BME280;11041;50.854;20.580;2023-11-25T05:42:51;96713.09;;;-0.70;100.00
21760;BME280;11041;50.854;20.580;2023-11-25T05:45:22;96715.53;;;-0.73;100.00
21760;BME280;11041;50.854;20.580;2023-11-25T05:47:55;96711.47;;;-0.71;100.00
21760;BME280;11041;50.854;20.580;2023-11-25T05:50:26;96724.50;;;-0.78;100.00
21760;BME280;11041;50.854;20.580;2023-11-25T05:52:59;96724.31;;;-0.81;100.00
21760;BME280;11041;50.854;20.580;2023-11-25T05:55:26;96729.19;;;-0.83;100.00
21760;BME280;11041;50.854;20.580;2023-11-25T05:57:54;96729.69;;;-0.81;100.00
21760;BME280;11041;50.854;20.580;2023-11-25T06:00:25;96731.56;;;-0.82;100.00
21760;BME280;11041;50.854;20.580;2023-11-25T06:02:59;96735.88;;;-0.81;100.00
21760;BME280;11041;50.854;20.580;2023-11-25T06:05:29;96740.19;;;-0.80;100.00
21760;BME280;11041;50.854;20.580;2023-11-25T06:07:58;96751.78;;;-0.79;100.00
21760;BME280;11041;50.854;20.580;2023-11-25T06:10:25;96754.19;;;-0.78;100.00
21760;BME280;11041;50.854;20.580;2023-11-25T06:12:59;96757.66;;;-0.77;100.00
21760;BME280;11041;50.854;20.580;2023-11-25T06:15:27;96766.06;;;-0.79;100.00
21760;BME280;11041;50.854;20.580;2023-11-25T06:17:55;96765.56;;;-0.81;100.00
21760;BME280;11041;50.854;20.580;2023-11-25T06:20:26;96767.66;;;-0.78;100.00
21760;BME280;11041;50.854;20.580;2023-11-25T06:22:56;96771.66;;;-0.75;100.00
21760;BME280;11041;50.854;20.580;2023-11-25T06:25:23;96768.25;;;-0.81;100.00
21760;BME280;11041;50.854;20.580;2023-11-25T06:27:50;96775.81;;;-0.83;100.00
21760;BME280;11041;50.854;20.580;2023-11-25T06:30:17;96776.63;;;-0.82;100.00
21760;BME280;11041;50.854;20.580;2023-11-25T06:32:44;96776.34;;;-0.81;100.00
21760;BME280;11041;50.854;20.580;2023-11-25T06:35:10;96784.19;;;-0.84;100.00
21760;BME280;11041;50.854;20.580;2023-11-25T06:37:41;96774.78;;;-0.87;100.00
21760;BME280;11041;50.854;20.580;2023-11-25T06:40:12;96779.09;;;-0.86;100.00
21760;BME280;11041;50.854;20.580;2023-11-25T06:42:41;96780.19;;;-0.87;100.00
21760;BME280;11041;50.854;20.580;2023-11-25T06:45:09;96785.06;;;-0.89;100.00
21760;BME280;11041;50.854;20.580;2023-11-25T06:47:39;96789.88;;;-0.86;100.00
21760;BME280;11041;50.854;20.580;2023-11-25T06:50:06;96789.81;;;-0.81;100.00
21760;BME280;11041;50.854;20.580;2023-11-25T06:52:33;96788.72;;;-0.80;100.00
21760;BME280;11041;50.854;20.580;2023-11-25T06:54:59;96783.31;;;-0.80;100.00
21760;BME280;11041;50.854;20.580;2023-11-25T06:57:27;96795.78;;;-0.84;100.00
21760;BME280;11041;50.854;20.580;2023-11-25T06:59:57;96796.00;;;-0.80;100.00
21760;BME280;11041;50.854;20.580;2023-11-25T07:02:27;96801.63;;;-0.77;100.00
21760;BME280;11041;50.854;20.580;2023-11-25T07:04:55;96807.16;;;-0.68;100.00
21760;BME280;11041;50.854;20.580;2023-11-25T07:07:21;96811.25;;;-0.71;100.00
21760;BME280;11041;50.854;20.580;2023-11-25T07:09:52;96816.06;;;-0.68;100.00
21760;BME280;11041;50.854;20.580;2023-11-25T07:12:20;96819.00;;;-0.64;100.00
21760;BME280;11041;50.854;20.580;2023-11-25T07:14:46;96819.50;;;-0.62;100.00
21760;BME280;11041;50.854;20.580;2023-11-25T07:17:13;96816.22;;;-0.59;100.00
21760;BME280;11041;50.854;20.580;2023-11-25T07:19:43;96812.13;;;-0.56;100.00
21760;BME280;11041;50.854;20.580;2023-11-25T07:22:14;96819.78;;;-0.63;100.00
21760;BME280;11041;50.854;20.580;2023-11-25T07:24:41;96821.44;;;-0.68;100.00
21760;BME280;11041;50.854;20.580;2023-11-25T07:27:09;96833.63;;;-0.70;100.00
21760;BME280;11041;50.854;20.580;2023-11-25T07:29:38;96822.84;;;-0.70;100.00
21760;BME280;11041;50.854;20.580;2023-11-25T07:32:08;96824.97;;;-0.67;100.00
21760;BME280;11041;50.854;20.580;2023-11-25T07:34:37;96831.75;;;-0.70;100.00
21760;BME280;11041;50.854;20.580;2023-11-25T07:37:06;96827.69;;;-0.67;100.00
21760;BME280;11041;50.854;20.580;2023-11-25T07:39:34;96827.94;;;-0.69;100.00
21760;BME280;11041;50.854;20.580;2023-11-25T07:42:01;96836.25;;;-0.65;100.00
21760;BME280;11041;50.854;20.580;2023-11-25T07:44:28;96840.56;;;-0.64;100.00
21760;BME280;11041;50.854;20.580;2023-11-25T07:47:03;96841.09;;;-0.62;100.00
21760;BME280;11041;50.854;20.580;2023-11-25T07:49:35;96840.91;;;-0.71;100.00
21760;BME280;11041;50.854;20.580;2023-11-25T07:52:06;96843.22;;;-0.83;100.00
21760;BME280;11041;50.854;20.580;2023-11-25T07:54:34;96839.75;;;-0.83;100.00
21760;BME280;11041;50.854;20.580;2023-11-25T07:57:04;96851.31;;;-0.83;100.00
21760;BME280;11041;50.854;20.580;2023-11-25T07:59:33;96850.19;;;-0.77;100.00
21760;BME280;11041;50.854;20.580;2023-11-25T08:02:03;96844.13;;;-0.69;100.00
21760;BME280;11041;50.854;20.580;2023-11-25T08:04:30;96855.44;;;-0.67;100.00
21760;BME280;11041;50.854;20.580;2023-11-25T08:06:56;96854.91;;;-0.69;100.00
21760;BME280;11041;50.854;20.580;2023-11-25T08:09:23;96860.31;;;-0.69;100.00
21760;BME280;11041;50.854;20.580;2023-11-25T08:11:58;96871.50;;;-0.80;100.00
21760;BME280;11041;50.854;20.580;2023-11-25T08:14:25;96867.03;;;-0.90;100.00
21760;BME280;11041;50.854;20.580;2023-11-25T08:16:53;96871.06;;;-0.88;100.00
21760;BME280;11041;50.854;20.580;2023-11-25T08:19:19;96883.22;;;-0.90;100.00
21760;BME280;11041;50.854;20.580;2023-11-25T08:21:48;96880.00;;;-0.92;100.00
21760;BME280;11041;50.854;20.580;2023-11-25T08:24:16;96896.13;;;-0.87;100.00
21760;BME280;11041;50.854;20.580;2023-11-25T08:26:47;96893.44;;;-0.87;100.00
21760;BME280;11041;50.854;20.580;2023-11-25T08:29:16;96901.44;;;-0.82;100.00
21760;BME280;11041;50.854;20.580;2023-11-25T08:31:44;96903.06;;;-0.81;100.00
21760;BME280;11041;50.854;20.580;2023-11-25T08:34:12;96912.22;;;-0.77;100.00
21760;BME280;11041;50.854;20.580;2023-11-25T08:36:40;96917.34;;;-0.80;100.00
21760;BME280;11041;50.854;20.580;2023-11-25T08:39:17;96918.72;;;-0.83;100.00
21760;BME280;11041;50.854;20.580;2023-11-25T08:41:43;96931.38;;;-0.78;100.00
21760;BME280;11041;50.854;20.580;2023-11-25T08:44:10;96942.38;;;-0.75;100.00
21760;BME280;11041;50.854;20.580;2023-11-25T08:46:41;96947.47;;;-0.73;100.00
21760;BME280;11041;50.854;20.580;2023-11-25T08:49:13;96947.59;;;-0.83;100.00
21760;BME280;11041;50.854;20.580;2023-11-25T08:51:49;96951.66;;;-0.86;100.00
21760;BME280;11041;50.854;20.580;2023-11-25T08:54:19;96963.84;;;-0.89;100.00
21760;BME280;11041;50.854;20.580;2023-11-25T08:56:51;96960.09;;;-0.93;100.00
21760;BME280;11041;50.854;20.580;2023-11-25T08:59:23;96968.91;;;-0.87;100.00
21760;BME280;11041;50.854;20.580;2023-11-25T09:01:55;96972.94;;;-0.84;100.00
21760;BME280;11041;50.854;20.580;2023-11-25T09:04:25;96974.78;;;-0.80;100.00
21760;BME280;11041;50.854;20.580;2023-11-25T09:06:58;96979.06;;;-0.74;100.00
21760;BME280;11041;50.854;20.580;2023-11-25T09:09:24;96982.50;;;-0.68;100.00
21760;BME280;11041;50.854;20.580;2023-11-25T09:11:57;96975.44;;;-0.64;100.00
21760;BME280;11041;50.854;20.580;2023-11-25T09:14:27;96983.75;;;-0.60;100.00
21760;BME280;11041;50.854;20.580;2023-11-25T09:16:55;97005.59;;;-0.57;100.00
21760;BME280;11041;50.854;20.580;2023-11-25T09:19:26;96990.81;;;-0.65;100.00
21760;BME280;11041;50.854;20.580;2023-11-25T09:21:58;96993.16;;;-0.58;100.00
21760;BME280;11041;50.854;20.580;2023-11-25T09:24:26;97000.88;;;-0.46;100.00
21760;BME280;11041;50.854;20.580;2023-11-25T09:26:54;97010.28;;;-0.44;100.00
21760;BME280;11041;50.854;20.580;2023-11-25T09:29:23;97005.41;;;-0.41;100.00
21760;BME280;11041;50.854;20.580;2023-11-25T09:31:51;97006.50;;;-0.43;100.00
21760;BME280;11041;50.854;20.580;2023-11-25T09:34:18;97003.81;;;-0.43;99.51
21760;BME280;11041;50.854;20.580;2023-11-25T09:36:46;97002.50;;;-0.45;99.51
21760;BME280;11041;50.854;20.580;2023-11-25T09:39:13;97012.13;;;-0.39;99.36
21760;BME280;11041;50.854;20.580;2023-11-25T09:41:44;97003.94;;;-0.29;99.28
21760;BME280;11041;50.854;20.580;2023-11-25T09:44:11;97001.69;;;-0.22;98.95
21760;BME280;11041;50.854;20.580;2023-11-25T09:46:44;97000.78;;;-0.17;98.06
21760;BME280;11041;50.854;20.580;2023-11-25T09:49:13;97013.50;;;-0.17;97.08
21760;BME280;11041;50.854;20.580;2023-11-25T09:51:44;97003.28;;;-0.20;97.15
21760;BME280;11041;50.854;20.580;2023-11-25T09:54:20;97006.31;;;-0.27;97.01
21760;BME280;11041;50.854;20.580;2023-11-25T09:56:50;97007.13;;;-0.27;97.34
21760;BME280;11041;50.854;20.580;2023-11-25T09:59:19;96991.00;;;-0.32;97.95
21760;BME280;11041;50.854;20.580;2023-11-25T10:01:46;96995.59;;;-0.32;98.23
21760;BME280;11041;50.854;20.580;2023-11-25T10:04:13;96987.44;;;-0.27;97.38
21760;BME280;11041;50.854;20.580;2023-11-25T10:06:46;96997.38;;;-0.23;97.57
21760;BME280;11041;50.854;20.580;2023-11-25T10:09:13;97003.88;;;-0.24;96.07
21760;BME280;11041;50.854;20.580;2023-11-25T10:11:45;97005.19;;;-0.21;96.00
21760;BME280;11041;50.854;20.580;2023-11-25T10:14:17;97004.88;;;-0.19;96.41
21760;BME280;11041;50.854;20.580;2023-11-25T10:16:49;97004.31;;;-0.16;95.16
21760;BME280;11041;50.854;20.580;2023-11-25T10:19:23;97007.75;;;-0.11;95.59
21760;BME280;11041;50.854;20.580;2023-11-25T10:21:51;97007.53;;;-0.14;96.16
21760;BME280;11041;50.854;20.580;2023-11-25T10:24:19;97006.88;;;-0.06;96.61
21760;BME280;11041;50.854;20.580;2023-11-25T10:26:53;97003.66;;;-0.08;95.40
21760;BME280;11041;50.854;20.580;2023-11-25T10:29:27;97014.94;;;-0.01;95.14
21760;BME280;11041;50.854;20.580;2023-11-25T10:31:57;97009.53;;;-0.01;95.08
21760;BME280;11041;50.854;20.580;2023-11-25T10:34:25;97005.75;;;0.00;93.96
21760;BME280;11041;50.854;20.580;2023-11-25T10:36:55;97010.13;;;-0.04;93.64
21760;BME280;11041;50.854;20.580;2023-11-25T10:39:23;97011.78;;;-0.08;94.51
21760;BME280;11041;50.854;20.580;2023-11-25T10:41:51;97010.25;;;-0.14;95.25
21760;BME280;11041;50.854;20.580;2023-11-25T10:44:21;97016.09;;;-0.07;94.41
21760;BME280;11041;50.854;20.580;2023-11-25T10:46:48;97020.97;;;-0.09;93.34
21760;BME280;11041;50.854;20.580;2023-11-25T10:49:20;97019.13;;;-0.14;93.72
21760;BME280;11041;50.854;20.580;2023-11-25T10:51:52;97029.06;;;-0.09;95.20
21760;BME280;11041;50.854;20.580;2023-11-25T10:54:24;97022.75;;;0.01;96.65
21760;BME280;11041;50.854;20.580;2023-11-25T10:56:57;97021.56;;;0.07;95.71
21760;BME280;11041;50.854;20.580;2023-11-25T10:59:28;97023.13;;;0.13;95.40
21760;BME280;11041;50.854;20.580;2023-11-25T11:02:04;97023.56;;;0.20;93.99
21760;BME280;11041;50.854;20.580;2023-11-25T11:04:59;97033.22;;;0.26;92.83
21760;BME280;11041;50.854;20.580;2023-11-25T11:07:30;97037.97;;;0.34;93.14
21760;BME280;11041;50.854;20.580;2023-11-25T11:10:04;97032.72;;;0.43;94.04
21760;BME280;11041;50.854;20.580;2023-11-25T11:12:43;97027.97;;;0.35;92.26
21760;BME280;11041;50.854;20.580;2023-11-25T11:15:15;97035.19;;;0.20;93.97
21760;BME280;11041;50.854;20.580;2023-11-25T11:20:41;97022.19;;;0.23;93.41
21760;BME280;11041;50.854;20.580;2023-11-25T11:23:13;97029.84;;;0.15;93.30
21760;BME280;11041;50.854;20.580;2023-11-25T11:26:42;97038.47;;;0.17;94.01
21760;BME280;11041;50.854;20.580;2023-11-25T11:29:35;97034.72;;;0.13;94.53
21760;BME280;11041;50.854;20.580;2023-11-25T11:32:13;97039.63;;;0.11;94.65
21760;BME280;11041;50.854;20.580;2023-11-25T11:34:45;97040.72;;;0.10;95.16
21760;BME280;11041;50.854;20.580;2023-11-25T11:37:15;97050.41;;;0.11;94.20
21760;BME280;11041;50.854;20.580;2023-11-25T11:47:53;97044.72;;;0.13;95.47
21760;BME280;11041;50.854;20.580;2023-11-25T11:50:27;97041.38;;;0.21;95.49
21760;BME280;11041;50.854;20.580;2023-11-25T11:55:49;97031.13;;;0.42;94.76
21760;BME280;11041;50.854;20.580;2023-11-25T11:58:23;97029.44;;;0.46;94.62
21760;BME280;11041;50.854;20.580;2023-11-25T12:03:36;97030.06;;;0.38;93.96
21760;BME280;11041;50.854;20.580;2023-11-25T12:06:09;97032.34;;;0.31;94.12
21760;BME280;11041;50.854;20.580;2023-11-25T12:08:39;97035.03;;;0.31;93.66
21760;BME280;11041;50.854;20.580;2023-11-25T12:11:07;97036.44;;;0.28;95.07
21760;BME280;11041;50.854;20.580;2023-11-25T12:13:38;97029.56;;;0.36;95.67
21760;BME280;11041;50.854;20.580;2023-11-25T12:16:06;97031.03;;;0.28;94.71
21760;BME280;11041;50.854;20.580;2023-11-25T12:18:36;97030.81;;;0.25;95.33
21760;BME280;11041;50.854;20.580;2023-11-25T12:21:06;97034.72;;;0.13;95.08
21760;BME280;11041;50.854;20.580;2023-11-25T12:23:37;97043.19;;;0.07;96.40
21760;BME280;11041;50.854;20.580;2023-11-25T12:26:07;97030.19;;;0.09;96.47
21760;BME280;11041;50.854;20.580;2023-11-25T12:28:43;97034.44;;;0.15;96.65
21760;BME280;11041;50.854;20.580;2023-11-25T12:31:12;97043.34;;;0.15;96.39
21760;BME280;11041;50.854;20.580;2023-11-25T12:33:40;97039.00;;;0.19;97.11
21760;BME280;11041;50.854;20.580;2023-11-25T12:36:10;97037.59;;;0.22;96.56
21760;BME280;11041;50.854;20.580;2023-11-25T12:38:41;97045.78;;;0.17;96.14
21760;BME280;11041;50.854;20.580;2023-11-25T12:41:09;97045.53;;;0.13;96.08
21760;BME280;11041;50.854;20.580;2023-11-25T12:44:08;97048.06;;;0.05;97.27
21760;BME280;11041;50.854;20.580;2023-11-25T12:46:58;97048.66;;;0.02;97.34
21760;BME280;11041;50.854;20.580;2023-11-25T12:49:26;97052.66;;;0.04;97.80
21760;BME280;11041;50.854;20.580;2023-11-25T12:51:55;97049.44;;;0.02;98.26
21760;BME280;11041;50.854;20.580;2023-11-25T12:54:23;97049.81;;;-0.05;98.45
21760;BME280;11041;50.854;20.580;2023-11-25T12:56:56;97054.91;;;-0.03;98.71
21760;BME280;11041;50.854;20.580;2023-11-25T12:59:27;97060.63;;;-0.05;98.82
21760;BME280;11041;50.854;20.580;2023-11-25T13:02:08;97061.16;;;-0.08;99.02
21760;BME280;11041;50.854;20.580;2023-11-25T13:04:47;97064.38;;;-0.06;99.42
21760;BME280;11041;50.854;20.580;2023-11-25T13:07:36;97063.06;;;-0.08;99.46
21760;BME280;11041;50.854;20.580;2023-11-25T13:10:03;97066.28;;;-0.06;99.58
21760;BME280;11041;50.854;20.580;2023-11-25T13:12:32;97067.41;;;-0.07;99.39